Time;durP1;ratioP1;P1;durP2;ratioP2;P2;SDS_P1;SDS_P2;PMS_P1;PMS_P2;Temp;Humidity;BMP_temperature;BMP_pressure;BME280_temperature;BME280_humidity;BME280_pressure;Samples;Min_cycle;Max_cycle;Signal;HPM_P1;HPM_P2
2023/03/16 00:02:11;;;;;;;3.90;2.35;;;4.10;10.80;;;;;;5085758;28;20036;-67
2023/03/16 00:04:37;;;;;;;3.22;1.90;;;4.10;13.10;;;;;;5070461;28;20146;-67
2023/03/16 00:07:10;;;;;;;5.65;1.92;;;4.10;31.90;;;;;;5069075;28;20071;-67
2023/03/16 00:09:40;;;;;;;3.70;2.17;;;4.10;21.80;;;;;;5079414;28;20051;-67
2023/03/16 00:12:14;;;;;;;3.90;1.90;;;4.10;12.40;;;;;;5075613;28;20321;-67
2023/03/16 00:14:42;;;;;;;3.78;1.60;;;4.10;39.70;;;;;;5083685;28;20435;-67
2023/03/16 00:17:17;;;;;;;4.85;1.92;;;4.10;36.60;;;;;;5087621;28;20522;-67
2023/03/16 00:19:46;;;;;;;3.13;1.70;;;4.10;18.90;;;;;;5059952;28;20043;-67
2023/03/16 00:22:13;;;;;;;3.67;2.05;;;4.20;28.70;;;;;;5068902;28;20127;-67
2023/03/16 00:24:43;;;;;;;6.38;2.13;;;4.20;50.50;;;;;;5068540;28;20041;-68
2023/03/16 00:27:13;;;;;;;2.88;1.83;;;4.20;72.40;;;;;;5087730;28;20044;-69
2023/03/16 00:29:46;;;;;;;4.00;2.00;;;4.20;34.70;;;;;;5089090;28;20518;-68
2023/03/16 00:32:18;;;;;;;3.95;2.00;;;4.20;38.00;;;;;;5087388;28;20217;-68
2023/03/16 00:34:45;;;;;;;3.95;2.10;;;4.20;46.50;;;;;;5074642;28;20052;-68
2023/03/16 00:37:14;;;;;;;6.15;2.17;;;4.20;25.30;;;;;;5066678;28;20061;-67
2023/03/16 00:39:44;;;;;;;3.50;1.95;;;4.20;22.70;;;;;;5077707;28;20174;-67
2023/03/16 00:42:13;;;;;;;5.55;2.30;;;4.20;29.40;;;;;;5073476;28;20453;-68
2023/03/16 00:44:40;;;;;;;3.65;1.95;;;4.20;20.90;;;;;;5083953;28;20127;-68
2023/03/16 00:47:07;;;;;;;3.63;2.10;;;4.20;26.90;;;;;;5073654;28;20395;-68
2023/03/16 00:49:35;;;;;;;4.90;2.25;;;4.20;13.50;;;;;;5079620;28;20043;-68
2023/03/16 00:52:06;;;;;;;6.43;2.40;;;4.30;3.70;;;;;;5085090;28;20483;-67
2023/03/16 00:54:32;;;;;;;3.60;2.00;;;4.20;5.80;;;;;;5078031;28;20512;-68
2023/03/16 00:56:59;;;;;;;4.78;2.08;;;4.20;6.20;;;;;;5073515;28;20062;-67
2023/03/16 00:59:25;;;;;;;4.32;2.00;;;4.20;2.00;;;;;;5076729;28;20582;-67
2023/03/16 01:01:52;;;;;;;3.92;1.98;;;4.20;14.00;;;;;;5075051;28;20104;-67
2023/03/16 01:04:18;;;;;;;7.15;2.63;;;4.30;45.40;;;;;;5083118;28;20119;-67
2023/03/16 01:06:44;;;;;;;3.25;1.92;;;4.20;62.20;;;;;;5072208;28;20202;-67
2023/03/16 01:09:10;;;;;;;4.75;2.47;;;4.20;26.20;;;;;;5078607;28;20395;-67
2023/03/16 01:11:36;;;;;;;3.20;2.42;;;4.20;20.80;;;;;;5092382;28;20040;-68
2023/03/16 01:14:02;;;;;;;4.75;2.55;;;4.20;15.50;;;;;;5079027;28;20396;-68
2023/03/16 01:16:28;;;;;;;6.90;2.70;;;4.30;4.40;;;;;;5080521;28;20102;-67
2023/03/16 01:18:56;;;;;;;4.65;2.38;;;4.30;14.20;;;;;;5071473;28;20048;-68
2023/03/16 01:21:22;;;;;;;5.88;2.38;;;4.30;24.10;;;;;;5085472;28;20155;-67
2023/03/16 01:23:48;;;;;;;4.75;2.35;;;4.30;31.50;;;;;;5089381;28;20040;-68
2023/03/16 01:26:16;;;;;;;4.22;2.30;;;4.30;56.50;;;;;;5079811;28;20105;-67
2023/03/16 01:28:43;;;;;;;4.40;2.42;;;4.30;31.00;;;;;;5070766;28;20098;-67
2023/03/16 01:31:11;;;;;;;5.40;2.38;;;4.30;29.20;;;;;;5091964;28;20398;-67
2023/03/16 01:33:37;;;;;;;5.80;3.05;;;4.30;42.00;;;;;;5084126;28;20109;-67
2023/03/16 01:36:15;;;;;;;5.45;2.33;;;4.30;42.70;;;;;;5071331;28;20103;-67
2023/03/16 01:38:41;;;;;;;6.53;3.10;;;4.30;25.30;;;;;;5079772;28;20055;-67
2023/03/16 01:41:08;;;;;;;5.60;2.20;;;4.30;12.20;;;;;;5074925;28;20046;-67
2023/03/16 01:43:36;;;;;;;;;;;4.40;23.60;;;;;;5084531;28;20465;-67
2023/03/16 01:46:05;;;;;;;7.80;2.90;;;4.30;20.30;;;;;;5091212;28;20449;-67
2023/03/16 01:48:53;;;;;;;5.07;2.50;;;4.40;30.50;;;;;;5086728;28;20051;-68
2023/03/16 01:51:44;;;;;;;3.65;2.33;;;4.30;29.50;;;;;;5067634;28;20048;-68
2023/03/16 01:54:47;;;;;;;6.03;2.65;;;4.30;35.00;;;;;;5072310;28;20487;-68
2023/03/16 01:57:19;;;;;;;3.83;2.58;;;4.30;24.40;;;;;;5070877;28;20052;-68
2023/03/16 02:00:13;;;;;;;5.10;2.53;;;4.30;21.30;;;;;;5079932;28;20082;-68
2023/03/16 02:02:43;;;;;;;4.47;2.42;;;4.30;20.40;;;;;;5090913;28;20101;-68
2023/03/16 02:05:18;;;;;;;4.90;2.60;;;4.30;14.10;;;;;;5073249;28;20447;-67
2023/03/16 02:07:47;;;;;;;4.43;2.50;;;4.30;12.70;;;;;;5055586;28;20049;-68
2023/03/16 02:10:16;;;;;;;4.95;2.78;;;4.30;20.70;;;;;;5076297;28;20430;-68
2023/03/16 02:12:43;;;;;;;4.30;2.47;;;4.30;23.20;;;;;;5079980;28;20479;-68
2023/03/16 02:15:10;;;;;;;6.30;2.83;;;4.30;23.70;;;;;;5085545;28;20366;-68
2023/03/16 02:17:36;;;;;;;7.05;3.53;;;4.40;29.90;;;;;;5082643;28;20052;-68
2023/03/16 02:20:23;;;;;;;6.88;3.00;;;4.40;36.80;;;;;;5083731;28;20039;-68
2023/03/16 02:22:54;;;;;;;6.40;3.42;;;4.40;24.00;;;;;;5076499;28;20090;-68
2023/03/16 02:25:30;;;;;;;5.15;3.17;;;4.40;43.70;;;;;;5075251;28;20112;-68
2023/03/16 02:28:10;;;;;;;6.78;3.38;;;4.40;31.40;;;;;;5070414;28;20082;-68
2023/03/16 02:30:36;;;;;;;7.97;3.38;;;4.40;51.60;;;;;;5087853;28;20036;-68
2023/03/16 02:33:03;;;;;;;4.88;3.33;;;4.40;56.60;;;;;;5087442;28;20775;-68
2023/03/16 02:35:30;;;;;;;5.47;2.67;;;4.50;25.90;;;;;;5089764;28;20056;-68
2023/03/16 02:37:56;;;;;;;5.63;3.10;;;4.50;22.00;;;;;;5088614;28;20521;-66
2023/03/16 02:40:28;;;;;;;4.55;2.90;;;4.50;24.90;;;;;;5053608;28;20044;-67
2023/03/16 02:43:03;;;;;;;8.30;3.45;;;4.50;25.70;;;;;;5082058;28;20055;-67
2023/03/16 02:45:57;;;;;;;6.25;3.28;;;4.50;52.70;;;;;;5053606;28;20052;-67
2023/03/16 02:48:31;;;;;;;4.75;3.15;;;4.50;21.70;;;;;;5074374;28;20124;-68
2023/03/16 02:50:57;;;;;;;6.60;3.17;;;4.50;46.20;;;;;;5088581;28;20044;-69
2023/03/16 02:53:23;;;;;;;5.25;3.20;;;4.50;21.70;;;;;;5071620;28;20043;-67
2023/03/16 02:55:49;;;;;;;8.13;3.80;;;4.50;31.50;;;;;;5089928;28;20044;-68
2023/03/16 02:58:15;;;;;;;7.80;3.70;;;4.60;21.70;;;;;;5088511;28;20083;-68
2023/03/16 03:00:41;;;;;;;6.13;3.50;;;4.50;29.00;;;;;;5069847;28;20079;-68
2023/03/16 03:03:08;;;;;;;7.65;3.55;;;4.60;46.50;;;;;;5071301;28;20044;-68
2023/03/16 03:05:34;;;;;;;7.88;3.90;;;4.60;23.50;;;;;;5069740;28;20392;-68
2023/03/16 03:08:00;;;;;;;4.93;3.33;;;4.60;13.10;;;;;;5072971;28;20036;-68
2023/03/16 03:10:26;;;;;;;8.18;3.60;;;4.60;27.90;;;;;;5088285;28;20054;-68
2023/03/16 03:12:52;;;;;;;6.85;3.67;;;4.60;34.50;;;;;;5059320;28;20173;-68
2023/03/16 03:15:18;;;;;;;6.50;3.85;;;4.60;15.60;;;;;;5072293;28;20052;-68
2023/03/16 03:17:44;;;;;;;10.88;3.85;;;4.60;12.60;;;;;;5069321;28;20064;-68
2023/03/16 03:20:15;;;;;;;6.30;3.60;;;4.60;20.90;;;;;;5067691;28;20040;-69
2023/03/16 03:22:43;;;;;;;8.07;3.50;;;4.60;17.50;;;;;;5069785;28;20032;-68
2023/03/16 03:25:10;;;;;;;6.70;3.58;;;4.60;12.70;;;;;;5081006;28;20425;-68
2023/03/16 03:27:36;;;;;;;4.80;3.03;;;4.60;9.20;;;;;;5088865;28;20051;-68
2023/03/16 03:30:04;;;;;;;9.00;4.00;;;4.60;10.80;;;;;;5077620;28;20044;-68
2023/03/16 03:32:30;;;;;;;6.78;3.28;;;4.70;39.60;;;;;;5069731;28;20044;-68
2023/03/16 03:34:55;;;;;;;9.52;3.75;;;4.70;12.10;;;;;;5077900;28;20036;-68
2023/03/16 03:37:21;;;;;;;7.53;3.47;;;4.70;15.00;;;;;;5055330;28;20040;-68
2023/03/16 03:39:47;;;;;;;6.18;3.70;;;4.70;22.10;;;;;;5073385;28;20059;-68
2023/03/16 03:42:13;;;;;;;6.35;3.42;;;4.70;25.00;;;;;;5075482;28;20036;-68
2023/03/16 03:44:38;;;;;;;7.85;3.38;;;4.70;7.40;;;;;;5071427;28;20044;-68
2023/03/16 03:47:04;;;;;;;6.20;3.45;;;4.70;6.00;;;;;;5079024;28;20125;-68
2023/03/16 03:49:30;;;;;;;6.32;3.30;;;4.70;9.30;;;;;;5078947;28;20170;-67
2023/03/16 03:51:58;;;;;;;4.57;3.40;;;4.70;21.40;;;;;;5089199;28;20572;-67
2023/03/16 03:54:24;;;;;;;5.45;3.38;;;4.70;10.00;;;;;;5075186;28;20395;-67
2023/03/16 03:56:51;;;;;;;6.40;3.17;;;4.70;21.20;;;;;;5068954;28;20045;-67
2023/03/16 03:59:16;;;;;;;5.60;3.40;;;4.70;21.80;;;;;;5073097;28;20075;-67
2023/03/16 04:01:42;;;;;;;7.03;3.30;;;4.70;30.10;;;;;;5083702;28;20066;-67
2023/03/16 04:04:08;;;;;;;6.38;3.50;;;4.70;28.80;;;;;;5070168;28;20071;-68
2023/03/16 04:06:34;;;;;;;6.07;3.30;;;4.70;26.80;;;;;;5052651;28;20044;-67
2023/03/16 04:08:59;;;;;;;6.25;3.65;;;4.70;20.30;;;;;;5069019;28;20433;-67
2023/03/16 04:11:25;;;;;;;5.82;3.20;;;4.70;21.00;;;;;;5088093;28;20146;-67
2023/03/16 04:13:52;;;;;;;6.13;3.00;;;4.70;33.30;;;;;;5081569;28;20040;-67
2023/03/16 04:16:19;;;;;;;4.75;3.10;;;4.80;26.30;;;;;;5065310;28;20041;-67
2023/03/16 04:18:45;;;;;;;5.05;3.28;;;4.70;32.30;;;;;;5081838;28;20120;-67
2023/03/16 04:21:15;;;;;;;4.40;3.28;;;4.70;19.90;;;;;;5061062;28;20041;-67
2023/03/16 04:23:42;;;;;;;4.70;3.05;;;4.70;42.60;;;;;;5074197;28;20032;-67
2023/03/16 04:26:08;;;;;;;5.68;3.13;;;4.70;35.20;;;;;;5070289;28;20035;-67
2023/03/16 04:28:34;;;;;;;6.97;3.50;;;4.80;25.10;;;;;;5093015;28;20392;-67
2023/03/16 04:31:05;;;;;;;5.45;3.00;;;4.80;30.00;;;;;;5080052;28;20048;-67
2023/03/16 04:33:32;;;;;;;4.60;2.83;;;4.80;20.80;;;;;;5075483;28;20052;-67
2023/03/16 04:35:58;;;;;;;;;;;4.80;26.10;;;;;;5087945;28;20572;-67
2023/03/16 04:38:23;;;;;;;4.72;2.83;;;4.80;21.80;;;;;;5092701;28;19927;-67
2023/03/16 04:40:49;;;;;;;5.00;3.17;;;4.80;28.90;;;;;;5082126;28;20106;-67
2023/03/16 04:43:15;;;;;;;6.07;3.00;;;4.80;19.60;;;;;;5059805;28;20044;-67
2023/03/16 04:45:40;;;;;;;5.53;3.10;;;4.80;42.80;;;;;;5083249;28;20526;-67
2023/03/16 04:48:06;;;;;;;6.18;3.25;;;4.80;30.80;;;;;;5093102;28;20036;-67
2023/03/16 04:50:32;;;;;;;6.93;3.08;;;4.70;27.90;;;;;;5088402;28;20120;-67
2023/03/16 04:52:57;;;;;;;3.58;2.70;;;4.80;37.90;;;;;;5082813;28;20051;-67
2023/03/16 04:55:23;;;;;;;5.53;3.17;;;4.80;20.70;;;;;;5080107;28;20044;-67
2023/03/16 04:57:49;;;;;;;4.97;3.22;;;4.80;23.20;;;;;;5072088;28;20080;-67
2023/03/16 05:00:18;;;;;;;3.95;2.70;;;4.70;28.00;;;;;;5074952;28;20120;-67
2023/03/16 05:02:48;;;;;;;5.07;3.08;;;4.70;25.50;;;;;;5084444;28;20079;-67
2023/03/16 05:05:14;;;;;;;4.70;2.83;;;4.70;44.90;;;;;;5079462;28;20089;-68
2023/03/16 05:07:41;;;;;;;3.25;2.67;;;4.70;41.70;;;;;;5084504;28;20040;-67
2023/03/16 05:10:12;;;;;;;6.47;3.30;;;4.80;25.20;;;;;;5091897;28;20472;-67
2023/03/16 05:12:38;;;;;;;4.13;2.92;;;4.70;33.30;;;;;;5085489;28;20036;-67
2023/03/16 05:15:05;;;;;;;4.55;2.95;;;4.80;45.80;;;;;;5081615;28;20052;-67
2023/03/16 05:17:31;;;;;;;5.15;3.10;;;4.80;30.30;;;;;;5071712;28;20040;-67
2023/03/16 05:19:56;;;;;;;5.70;3.20;;;4.80;28.40;;;;;;5071803;28;20044;-67
2023/03/16 05:22:22;;;;;;;8.45;3.30;;;4.80;29.70;;;;;;5092593;28;20044;-68
2023/03/16 05:24:48;;;;;;;4.70;3.00;;;4.70;25.50;;;;;;5089994;28;20043;-68
2023/03/16 05:27:14;;;;;;;6.68;3.08;;;4.70;24.00;;;;;;5074185;28;20044;-68
2023/03/16 05:29:45;;;;;;;5.25;2.97;;;4.70;52.30;;;;;;5071672;28;20186;-68
2023/03/16 05:32:12;;;;;;;5.95;3.28;;;4.70;46.10;;;;;;5087470;28;20351;-69
2023/03/16 05:34:38;;;;;;;5.15;3.30;;;4.70;44.40;;;;;;5091265;28;20248;-68
2023/03/16 05:37:03;;;;;;;5.10;3.30;;;4.70;50.20;;;;;;5075948;28;20671;-66
2023/03/16 05:39:29;;;;;;;5.85;3.25;;;4.70;43.20;;;;;;5071282;28;20051;-68
2023/03/16 05:41:58;;;;;;;4.20;3.22;;;4.70;30.80;;;;;;5076310;28;20048;-68
2023/03/16 05:44:24;;;;;;;6.28;3.15;;;4.80;47.20;;;;;;5078545;28;20078;-68
2023/03/16 05:46:50;;;;;;;5.00;3.33;;;4.80;39.40;;;;;;5075655;28;20079;-67
2023/03/16 05:49:16;;;;;;;5.68;3.60;;;4.80;33.80;;;;;;5078067;28;20368;-68
2023/03/16 05:51:42;;;;;;;5.43;3.22;;;4.80;40.40;;;;;;5081929;28;20429;-67
2023/03/16 05:54:07;;;;;;;6.60;3.53;;;4.80;51.20;;;;;;5086771;28;20048;-68
2023/03/16 05:56:33;;;;;;;7.68;3.42;;;4.80;48.10;;;;;;5057523;28;20082;-68
2023/03/16 05:58:59;;;;;;;6.53;3.30;;;4.80;43.80;;;;;;5089561;28;20387;-68
2023/03/16 06:01:25;;;;;;;5.88;3.90;;;4.80;48.30;;;;;;5081557;28;20050;-69
2023/03/16 06:03:51;;;;;;;6.03;3.58;;;4.80;60.00;;;;;;5059827;28;20038;-69
2023/03/16 06:06:20;;;;;;;8.35;3.80;;;4.80;51.60;;;;;;5045060;28;20036;-69
2023/03/16 06:08:46;;;;;;;6.57;4.00;;;4.80;64.70;;;;;;5064277;28;20044;-69
2023/03/16 06:11:12;;;;;;;8.35;3.97;;;4.80;57.90;;;;;;5078063;28;20055;-69
2023/03/16 06:13:38;;;;;;;6.82;4.18;;;4.80;58.80;;;;;;5081707;28;20032;-70
2023/03/16 06:16:05;;;;;;;7.38;3.53;;;4.80;62.30;;;;;;5083718;28;20041;-70
2023/03/16 06:18:32;;;;;;;7.05;3.90;;;4.80;68.30;;;;;;5079254;28;20372;-70
2023/03/16 06:20:57;;;;;;;5.05;3.20;;;4.80;59.30;;;;;;5078709;28;20044;-70
2023/03/16 06:23:23;;;;;;;4.70;3.00;;;4.80;70.60;;;;;;5076505;28;20039;-70
2023/03/16 06:25:49;;;;;;;5.90;3.38;;;4.90;77.60;;;;;;5060554;28;20047;-70
2023/03/16 06:28:16;;;;;;;6.63;4.20;;;4.80;72.30;;;;;;5079120;28;20067;-70
2023/03/16 06:30:41;;;;;;;4.88;3.28;;;4.80;70.20;;;;;;5080832;28;20036;-70
2023/03/16 06:33:07;;;;;;;4.70;3.60;;;4.90;67.40;;;;;;5080023;28;20043;-70
2023/03/16 06:35:33;;;;;;;7.25;3.50;;;4.90;74.50;;;;;;5062771;28;20102;-69
2023/03/16 06:37:59;;;;;;;7.15;3.70;;;4.90;73.20;;;;;;5073866;28;20056;-69
2023/03/16 06:40:25;;;;;;;6.95;3.80;;;4.90;68.40;;;;;;5075275;28;20127;-69
2023/03/16 06:42:51;;;;;;;5.60;4.00;;;4.90;67.30;;;;;;5081173;28;20486;-69
2023/03/16 06:45:20;;;;;;;6.07;4.30;;;5.00;84.60;;;;;;5075565;28;20043;-68
2023/03/16 06:47:46;;;;;;;8.32;4.22;;;5.00;75.20;;;;;;5078865;28;20286;-69
2023/03/16 06:50:12;;;;;;;4.32;3.60;;;5.00;73.10;;;;;;5084296;28;20035;-69
2023/03/16 06:52:37;;;;;;;5.60;3.58;;;5.00;80.20;;;;;;5080469;28;20047;-69
2023/03/16 06:55:04;;;;;;;4.70;3.40;;;5.00;83.00;;;;;;5053909;28;20038;-68
2023/03/16 06:57:30;;;;;;;6.57;3.95;;;5.00;85.20;;;;;;5078354;28;20067;-68
2023/03/16 06:59:55;;;;;;;6.05;3.80;;;5.00;68.00;;;;;;5081657;28;20504;-68
2023/03/16 07:02:22;;;;;;;5.93;3.85;;;5.00;77.10;;;;;;5079895;28;20102;-69
2023/03/16 07:04:49;;;;;;;5.03;3.40;;;5.10;80.20;;;;;;5083042;28;20071;-69
2023/03/16 07:07:15;;;;;;;;;;;5.10;75.40;;;;;;5072996;28;20141;-68
2023/03/16 07:09:42;;;;;;;5.95;3.55;;;5.10;69.30;;;;;;5076561;28;19923;-69
2023/03/16 07:12:08;;;;;;;7.60;3.63;;;5.20;83.90;;;;;;5079806;28;20127;-69
2023/03/16 07:14:34;;;;;;;7.25;3.65;;;5.20;70.70;;;;;;5072367;28;20036;-67
2023/03/16 07:17:00;;;;;;;5.85;3.50;;;5.20;71.70;;;;;;5083541;28;20058;-67
2023/03/16 07:19:27;;;;;;;7.07;3.38;;;5.20;61.10;;;;;;5083963;28;20067;-67
2023/03/16 07:21:52;;;;;;;;;;;5.20;63.30;;;;;;5077404;28;20040;-67
2023/03/16 07:24:18;;;;;;;6.97;3.60;;;5.20;59.70;;;;;;5068568;28;19998;-67
2023/03/16 07:26:45;;;;;;;6.35;3.45;;;5.30;63.90;;;;;;5059057;28;20072;-67
2023/03/16 07:29:11;;;;;;;;;;;5.30;57.50;;;;;;5084267;28;20042;-67
2023/03/16 07:31:36;;;;;;;6.15;3.55;;;5.30;54.90;;;;;;5075478;28;19916;-67
2023/03/16 07:34:03;;;;;;;4.57;3.17;;;5.40;60.20;;;;;;5079394;28;20047;-67
2023/03/16 07:36:29;;;;;;;6.40;3.50;;;5.40;53.40;;;;;;5083247;28;20617;-67
2023/03/16 07:38:54;;;;;;;6.55;3.30;;;5.40;66.20;;;;;;5081219;28;20063;-68
2023/03/16 07:41:20;;;;;;;7.18;3.80;;;5.40;61.10;;;;;;5063702;28;20036;-67
2023/03/16 07:43:46;;;;;;;5.32;3.20;;;5.50;59.50;;;;;;5078326;28;20123;-67
2023/03/16 07:46:12;;;;;;;6.90;3.40;;;5.50;64.60;;;;;;5080999;28;20032;-68
2023/03/16 07:48:43;;;;;;;3.33;2.67;;;5.50;68.70;;;;;;5083035;28;20067;-69
2023/03/16 07:51:10;;;;;;;4.78;3.67;;;5.50;83.20;;;;;;5087842;28;20044;-71
2023/03/16 07:53:36;;;;;;;5.10;3.22;;;5.50;74.20;;;;;;5087454;28;20039;-68
2023/03/16 07:56:02;;;;;;;6.07;3.40;;;5.60;77.30;;;;;;5088406;28;20104;-68
2023/03/16 07:58:28;;;;;;;5.22;2.75;;;5.70;80.60;;;;;;5060968;28;20049;-68
2023/03/16 08:01:00;;;;;;;5.55;3.30;;;5.70;67.10;;;;;;5069139;28;20422;-68
2023/03/16 08:03:27;;;;;;;6.15;3.67;;;5.80;65.10;;;;;;5067634;28;20052;-68
2023/03/16 08:05:54;;;;;;;5.85;3.47;;;5.90;66.20;;;;;;5067503;28;20040;-68
2023/03/16 08:08:21;;;;;;;;;;;5.90;69.00;;;;;;5069158;28;20107;-68
2023/03/16 08:10:48;;;;;;;5.70;3.30;;;5.90;72.50;;;;;;5069007;28;20031;-68
2023/03/16 08:13:14;;;;;;;5.40;3.13;;;5.90;75.60;;;;;;5069985;28;20049;-68
2023/03/16 08:15:41;;;;;;;5.40;3.67;;;5.90;78.60;;;;;;5070098;28;20040;-68
2023/03/16 08:18:06;;;;;;;6.38;3.40;;;5.90;89.50;;;;;;5051931;28;20056;-68
2023/03/16 08:20:33;;;;;;;7.45;3.08;;;5.90;90.90;;;;;;5068761;28;20396;-68
2023/03/16 08:22:58;;;;;;;6.78;3.45;;;5.80;95.90;;;;;;5068916;28;20391;-68
2023/03/16 08:25:25;;;;;;;5.15;3.25;;;5.70;95.50;;;;;;5068533;28;20055;-68
2023/03/16 08:27:51;;;;;;;;;;;5.70;99.90;;;;;;5052427;28;20048;-67
2023/03/16 08:30:17;;;;;;;4.25;3.13;;;5.70;99.90;;;;;;5084411;28;20378;-68
2023/03/16 08:32:43;;;;;;;4.82;3.25;;;5.70;99.90;;;;;;5060611;28;20047;-68
2023/03/16 08:35:15;;;;;;;4.43;3.30;;;5.70;99.90;;;;;;5085608;28;20051;-68
2023/03/16 08:37:42;;;;;;;5.10;3.45;;;5.70;99.90;;;;;;5073417;28;20159;-68
2023/03/16 08:40:12;;;;;;;4.97;3.30;;;5.70;99.90;;;;;;5083404;28;20078;-68
2023/03/16 08:42:38;;;;;;;6.68;3.67;;;5.70;99.90;;;;;;5078528;28;20043;-68
2023/03/16 08:45:11;;;;;;;4.50;3.08;;;5.70;99.90;;;;;;5082383;28;20039;-68
2023/03/16 08:47:39;;;;;;;5.47;3.58;;;5.70;99.90;;;;;;5066980;28;20051;-68
2023/03/16 08:50:06;;;;;;;6.80;3.35;;;5.70;99.90;;;;;;5066259;28;20419;-68
2023/03/16 08:52:33;;;;;;;4.65;3.25;;;5.70;99.90;;;;;;5067358;28;20047;-68
2023/03/16 08:54:59;;;;;;;6.22;3.42;;;5.70;99.90;;;;;;5067344;28;20110;-69
2023/03/16 08:57:26;;;;;;;6.40;3.55;;;5.70;99.90;;;;;;5084915;28;20052;-68
2023/03/16 08:59:51;;;;;;;4.47;3.20;;;5.70;99.90;;;;;;5084809;28;20130;-69
2023/03/16 09:02:17;;;;;;;5.97;3.55;;;5.70;99.90;;;;;;5086652;28;20199;-69
2023/03/16 09:04:44;;;;;;;4.63;3.20;;;5.70;99.90;;;;;;5089228;28;20043;-68
2023/03/16 09:07:11;;;;;;;4.97;3.22;;;5.70;99.90;;;;;;5055669;28;20044;-69
2023/03/16 09:09:38;;;;;;;5.05;3.63;;;5.80;99.90;;;;;;5055893;28;20440;-68
2023/03/16 09:12:05;;;;;;;5.57;3.72;;;5.80;99.90;;;;;;5089033;28;20472;-67
2023/03/16 09:14:30;;;;;;;;;;;5.70;99.90;;;;;;5089619;28;20056;-67
2023/03/16 09:16:57;;;;;;;9.30;3.92;;;5.70;99.90;;;;;;5063340;28;20450;-67
2023/03/16 09:19:23;;;;;;;5.00;3.38;;;5.70;99.90;;;;;;5092004;28;20047;-67
2023/03/16 09:21:50;;;;;;;5.53;3.67;;;5.80;99.90;;;;;;5093874;28;20036;-68
2023/03/16 09:24:16;;;;;;;4.15;3.40;;;5.70;99.90;;;;;;5088700;28;20048;-68
2023/03/16 09:26:42;;;;;;;4.80;3.28;;;5.70;99.90;;;;;;5088821;28;20048;-69
2023/03/16 09:29:08;;;;;;;4.70;3.47;;;5.70;99.90;;;;;;5091935;28;20555;-68
2023/03/16 09:31:35;;;;;;;5.60;3.88;;;5.60;99.90;;;;;;5085617;28;20036;-69
2023/03/16 09:34:00;;;;;;;6.68;3.35;;;5.70;99.90;;;;;;5079238;28;20052;-68
2023/03/16 09:36:27;;;;;;;6.28;3.88;;;5.70;99.90;;;;;;5077761;28;20534;-68
2023/03/16 09:38:53;;;;;;;5.18;3.72;;;5.80;99.90;;;;;;5082056;28;20479;-68
2023/03/16 09:41:38;;;;;;;4.78;3.55;;;5.80;99.90;;;;;;5080918;28;20036;-69
2023/03/16 09:44:20;;;;;;;5.45;4.25;;;6.00;99.90;;;;;;5080812;28;20085;-69
2023/03/16 09:46:49;;;;;;;7.85;4.15;;;6.00;99.90;;;;;;5083187;28;20048;-69
2023/03/16 09:49:19;;;;;;;5.70;3.85;;;6.20;99.90;;;;;;5071878;28;20044;-70
2023/03/16 09:52:08;;;;;;;4.10;3.10;;;6.30;99.90;;;;;;5079671;28;20048;-69
2023/03/16 09:54:48;;;;;;;7.90;4.07;;;6.30;99.90;;;;;;5091345;28;20499;-70
2023/03/16 09:57:28;;;;;;;5.75;3.75;;;6.40;99.90;;;;;;5087492;28;20418;-70
2023/03/16 09:59:59;;;;;;;6.03;3.78;;;6.20;99.90;;;;;;5080836;28;20090;-69
2023/03/16 10:02:27;;;;;;;7.22;3.88;;;6.30;99.90;;;;;;5090684;28;20067;-69
2023/03/16 10:05:10;;;;;;;5.45;3.50;;;6.20;99.90;;;;;;5068561;28;20035;-69
2023/03/16 10:08:05;;;;;;;7.93;3.80;;;6.40;99.90;;;;;;5079390;28;20056;-69
2023/03/16 10:11:04;;;;;;;6.18;3.83;;;6.20;99.90;;;;;;5081226;28;20040;-69
2023/03/16 10:13:30;;;;;;;6.20;3.88;;;6.40;99.90;;;;;;5073996;28;20041;-69
2023/03/16 10:15:58;;;;;;;8.13;3.70;;;6.20;99.90;;;;;;5079253;28;20354;-68
2023/03/16 10:18:31;;;;;;;5.03;3.75;;;6.30;99.90;;;;;;5086438;28;20122;-68
2023/03/16 10:20:57;;;;;;;6.00;3.70;;;6.40;99.90;;;;;;5071221;28;20127;-69
2023/03/16 10:23:23;;;;;;;;;;;6.40;99.90;;;;;;5070577;28;20044;-68
2023/03/16 10:25:54;;;;;;;5.20;3.42;;;6.30;99.90;;;;;;5069229;28;20002;-68
2023/03/16 10:28:22;;;;;;;6.15;3.78;;;6.40;99.90;;;;;;5069234;28;20074;-68
2023/03/16 10:30:50;;;;;;;5.55;3.60;;;6.40;99.90;;;;;;5069568;28;20048;-68
2023/03/16 10:33:25;;;;;;;7.55;3.63;;;6.40;99.90;;;;;;5069735;28;20048;-68
2023/03/16 10:35:55;;;;;;;5.13;3.90;;;6.20;99.90;;;;;;5070023;28;20052;-68
2023/03/16 10:38:39;;;;;;;7.32;4.00;;;6.20;99.90;;;;;;5069769;28;20531;-68
2023/03/16 10:41:16;;;;;;;5.57;3.60;;;6.40;99.90;;;;;;5070473;28;20041;-68
2023/03/16 10:43:49;;;;;;;6.90;3.95;;;6.30;99.90;;;;;;5090010;28;20040;-68
2023/03/16 10:46:15;;;;;;;6.07;3.60;;;6.30;99.90;;;;;;5090419;28;20044;-68
2023/03/16 10:48:42;;;;;;;5.40;3.75;;;6.50;99.90;;;;;;5090650;28;20063;-68
2023/03/16 10:51:12;;;;;;;6.10;3.47;;;6.30;99.90;;;;;;5090341;28;20048;-68
2023/03/16 10:53:42;;;;;;;5.78;3.33;;;6.50;99.90;;;;;;5090641;28;20040;-68
2023/03/16 10:56:32;;;;;;;5.22;3.25;;;6.50;99.90;;;;;;5091715;28;20044;-68
2023/03/16 10:58:59;;;;;;;7.88;3.78;;;6.60;99.90;;;;;;5090075;28;20130;-68
2023/03/16 11:01:27;;;;;;;7.07;3.50;;;6.40;99.90;;;;;;5090116;28;20119;-68
2023/03/16 11:03:55;;;;;;;6.35;3.47;;;6.40;99.90;;;;;;5090223;28;20328;-68
2023/03/16 11:06:32;;;;;;;9.88;4.00;;;6.60;99.90;;;;;;5073504;28;20100;-68
2023/03/16 11:09:11;;;;;;;5.13;3.60;;;6.40;99.90;;;;;;5089762;28;20040;-68
2023/03/16 11:11:37;;;;;;;7.05;3.90;;;6.40;99.90;;;;;;5090021;28;20051;-68
2023/03/16 11:14:09;;;;;;;5.32;3.70;;;6.40;99.90;;;;;;5089749;28;20044;-69
2023/03/16 11:16:53;;;;;;;6.10;3.80;;;6.60;99.90;;;;;;5073100;28;20046;-68
2023/03/16 11:19:40;;;;;;;7.53;4.07;;;6.60;99.90;;;;;;5072825;28;20467;-68
2023/03/16 11:22:12;;;;;;;8.03;3.97;;;6.50;99.90;;;;;;5089784;28;20044;-68
2023/03/16 11:24:55;;;;;;;4.85;3.72;;;6.80;99.90;;;;;;5089915;28;20139;-68
2023/03/16 11:27:51;;;;;;;6.97;3.60;;;6.90;99.90;;;;;;5089879;28;20078;-68
2023/03/16 11:30:48;;;;;;;6.68;3.42;;;6.90;99.90;;;;;;5089461;28;20478;-67
2023/03/16 11:33:14;;;;;;;5.70;3.40;;;7.00;99.90;;;;;;5089149;28;20052;-68
2023/03/16 11:36:07;;;;;;;4.60;3.22;;;7.20;99.90;;;;;;5090793;28;20383;-68
2023/03/16 11:38:48;;;;;;;7.07;3.28;;;7.20;99.90;;;;;;5072338;28;20388;-67
2023/03/16 11:41:52;;;;;;;4.90;3.22;;;7.30;99.90;;;;;;5072533;28;20043;-68
2023/03/16 11:44:27;;;;;;;5.65;3.10;;;7.40;99.90;;;;;;5089509;28;20044;-68
2023/03/16 11:47:40;;;;;;;4.78;3.10;;;7.40;99.90;;;;;;5089569;28;20491;-68
2023/03/16 11:50:44;;;;;;;6.55;3.63;;;7.50;99.90;;;;;;5071422;28;20109;-68
2023/03/16 11:53:21;;;;;;;4.30;2.92;;;7.50;99.90;;;;;;5053394;28;20102;-68
2023/03/16 11:56:03;;;;;;;;;;;7.40;99.90;;;;;;5072994;28;20167;-68
2023/03/16 11:58:35;;;;;;;7.28;3.22;;;7.50;99.90;;;;;;5089008;28;20287;-68
2023/03/16 12:01:26;;;;;;;5.03;3.38;;;7.50;99.90;;;;;;5089093;28;20075;-68
2023/03/16 12:04:18;;;;;;;5.75;3.10;;;7.60;99.90;;;;;;5072271;28;20365;-68
2023/03/16 12:06:59;;;;;;;4.55;2.88;;;7.60;99.90;;;;;;5088998;28;20048;-68
2023/03/16 12:09:31;;;;;;;4.65;3.15;;;7.70;99.90;;;;;;5089333;28;20083;-68
2023/03/16 12:12:25;;;;;;;5.97;3.40;;;7.80;99.90;;;;;;5088953;28;20149;-68
2023/03/16 12:15:04;;;;;;;6.25;3.28;;;8.00;99.90;;;;;;5089250;28;20482;-68
2023/03/16 12:17:32;;;;;;;5.65;3.25;;;8.20;99.90;;;;;;5088817;28;20060;-68
2023/03/16 12:20:17;;;;;;;5.32;3.10;;;8.20;99.90;;;;;;5089006;28;20101;-68
2023/03/16 12:22:47;;;;;;;4.43;2.60;;;8.40;99.90;;;;;;5088864;28;20047;-68
2023/03/16 12:25:21;;;;;;;4.88;2.60;;;8.50;99.90;;;;;;5090362;28;20040;-68
2023/03/16 12:27:51;;;;;;;5.20;3.10;;;8.60;99.90;;;;;;5088846;28;20105;-68
2023/03/16 12:30:29;;;;;;;4.70;3.20;;;8.70;99.90;;;;;;5088881;28;20048;-68
2023/03/16 12:33:07;;;;;;;5.10;2.92;;;8.70;99.90;;;;;;5088660;28;20093;-68
2023/03/16 12:35:51;;;;;;;4.15;2.80;;;8.80;99.90;;;;;;5088934;28;20495;-68
2023/03/16 12:38:26;;;;;;;6.90;3.30;;;8.80;99.90;;;;;;5092660;28;20548;-66
2023/03/16 12:41:22;;;;;;;4.95;2.78;;;8.80;99.90;;;;;;5092754;28;20122;-66
2023/03/16 12:44:08;;;;;;;5.65;3.13;;;9.00;99.90;;;;;;5092992;28;20051;-66
2023/03/16 12:47:02;;;;;;;5.00;2.50;;;9.30;99.90;;;;;;5092635;28;20047;-66
2023/03/16 12:49:32;;;;;;;5.15;3.13;;;9.40;99.90;;;;;;5092628;28;20048;-67
2023/03/16 12:52:00;;;;;;;5.15;2.78;;;9.30;94.10;;;;;;5094326;28;20036;-67
2023/03/16 12:54:27;;;;;;;5.65;2.75;;;9.30;94.30;;;;;;5092880;28;20082;-67
2023/03/16 12:57:00;;;;;;;5.22;2.88;;;9.20;93.60;;;;;;5092591;28;20126;-68
2023/03/16 12:59:41;;;;;;;4.00;2.50;;;9.30;98.10;;;;;;5093872;28;20051;-67
2023/03/16 13:02:17;;;;;;;3.78;2.28;;;9.30;97.50;;;;;;5092478;28;20052;-67
2023/03/16 13:04:45;;;;;;;5.32;3.17;;;9.20;87.50;;;;;;5092214;28;20082;-68
2023/03/16 13:07:18;;;;;;;4.95;3.00;;;9.30;92.60;;;;;;5092090;28;20048;-68
2023/03/16 13:09:49;;;;;;;3.88;2.60;;;9.30;90.50;;;;;;5092646;28;20044;-68
2023/03/16 13:12:46;;;;;;;4.07;2.90;;;9.30;94.90;;;;;;5092347;28;20416;-68
2023/03/16 13:15:22;;;;;;;5.28;2.60;;;9.20;83.60;;;;;;5087812;28;20059;-68
2023/03/16 13:18:01;;;;;;;5.53;2.80;;;9.20;77.40;;;;;;5091911;28;20056;-68